Terminal Aerodrome Forecast
Issued by NWS

Home | Current Version | Previous Version | Text Only | Print | Product List | Glossary On
Versions: 1 2 3 4 5 6 7 8 9 10 11 12 13 14 15 16 17 18 19 20
000
FTUS46 KMFR 171722
TAFRBG
TAF
KRBG 171722Z 1718/1818 VRB03KT 5SM -SHRA BR SCT005 OVC035
      TEMPO 1718/1720 3SM -SHRA BR BKN004
     FM172100 VRB03KT P6SM -SHRA SCT005 BKN035
     FM180200 VRB03KT P6SM BKN035
     FM180800 00000KT 1/2SM FG OVC002
     FM181600 VRB03KT 4SM BR OVC004=

USA.gov is the U.S. government's official web portal to all federal, state and local government web resources and services.